Time;durP1;ratioP1;P1;durP2;ratioP2;P2;SDS_P1;SDS_P2;PMS_P1;PMS_P2;Temp;Humidity;BMP_temperature;BMP_pressure;BME280_temperature;BME280_humidity;BME280_pressure;Samples;Min_cycle;Max_cycle;Signal;HPM_P1;HPM_P2
2023/12/05 00:00:34;;;;;;;3.40;1.85;;;;;;;9.60;84.40;98004.16;5091003;28;20114;-50
2023/12/05 00:03:00;;;;;;;4.43;2.78;;;;;;;9.55;83.44;97997.94;5092001;28;20103;-49
2023/12/05 00:05:26;;;;;;;3.25;1.90;;;;;;;9.50;85.07;97995.16;5091886;28;20031;-49
2023/12/05 00:07:51;;;;;;;6.15;4.78;;;;;;;9.42;84.92;98003.25;5091959;28;20054;-50
2023/12/05 00:10:17;;;;;;;5.05;3.05;;;;;;;9.41;86.61;97989.34;5091905;28;20107;-50
2023/12/05 00:12:42;;;;;;;6.15;2.05;;;;;;;9.35;85.08;97987.56;5091958;28;20095;-49
2023/12/05 00:15:08;;;;;;;4.40;1.90;;;;;;;9.29;85.26;97973.50;5091898;28;20108;-49
2023/12/05 00:17:34;;;;;;;5.78;3.65;;;;;;;9.27;86.71;97987.81;5090653;28;20081;-50
2023/12/05 00:20:00;;;;;;;6.63;2.85;;;;;;;9.22;86.35;97990.28;5090602;28;20032;-50
2023/12/05 00:22:27;;;;;;;5.28;2.45;;;;;;;9.16;87.45;97976.19;5090570;28;20379;-50
2023/12/05 00:24:53;;;;;;;4.07;2.05;;;;;;;9.22;87.60;97974.56;5091798;28;20031;-49
2023/12/05 00:27:18;;;;;;;6.65;4.63;;;;;;;9.29;87.87;97970.88;5073558;28;20020;-49
2023/12/05 00:29:46;;;;;;;6.40;3.20;;;;;;;9.29;87.61;97989.22;5091485;28;20020;-50
2023/12/05 00:32:11;;;;;;;3.88;2.65;;;;;;;9.30;87.28;97974.31;5091772;28;20157;-50
2023/12/05 00:34:37;;;;;;;5.35;1.90;;;;;;;9.25;86.50;97984.59;5090433;28;20127;-49
2023/12/05 00:37:03;;;;;;;7.40;4.20;;;;;;;9.21;86.37;97986.84;5091690;28;20124;-50
2023/12/05 00:39:28;;;;;;;13.40;12.07;;;;;;;9.18;86.55;97985.44;5091696;28;20501;-49
2023/12/05 00:41:54;;;;;;;10.45;8.73;;;;;;;9.22;87.43;97985.03;5090277;28;20405;-49
2023/12/05 00:44:20;;;;;;;7.40;3.83;;;;;;;9.32;87.53;97991.44;5091711;28;20509;-49
2023/12/05 00:46:45;;;;;;;13.93;12.55;;;;;;;9.33;87.47;97979.94;5091532;28;20062;-49
2023/12/05 00:49:11;;;;;;;6.40;4.13;;;;;;;9.28;86.92;97958.81;5090294;28;20028;-49
2023/12/05 00:51:37;;;;;;;13.70;10.05;;;;;;;9.34;86.19;97981.53;5091767;28;20027;-50
2023/12/05 00:54:02;;;;;;;5.57;3.50;;;;;;;9.27;86.80;97993.06;5091541;28;20512;-49
2023/12/05 00:56:28;;;;;;;6.78;4.35;;;;;;;9.18;88.04;97982.81;5090210;28;20024;-49
2023/12/05 00:58:54;;;;;;;5.13;2.78;;;;;;;9.16;86.92;97986.69;5091473;28;20017;-48
2023/12/05 01:01:20;;;;;;;3.15;2.53;;;;;;;9.26;88.74;97984.41;5090221;28;20042;-48
2023/12/05 01:03:46;;;;;;;2.38;1.60;;;;;;;9.45;86.98;97987.13;5091514;28;20025;-48
2023/12/05 01:06:11;;;;;;;3.03;2.13;;;;;;;9.35;85.52;97972.66;5090038;28;20024;-47
2023/12/05 01:08:37;;;;;;;9.13;2.60;;;;;;;9.25;85.74;97976.75;5094431;28;20030;-47
2023/12/05 01:11:03;;;;;;;3.70;1.52;;;;;;;9.25;86.36;97998.50;5095699;28;20533;-47
2023/12/05 01:13:28;;;;;;;4.50;2.30;;;;;;;9.19;86.66;98004.56;5095216;28;20032;-48
2023/12/05 01:15:54;;;;;;;2.78;1.70;;;;;;;9.22;85.78;97990.28;5095138;28;20012;-48
2023/12/05 01:18:20;;;;;;;3.70;2.78;;;;;;;9.22;86.83;98006.00;5093808;28;20089;-47
2023/12/05 01:20:46;;;;;;;3.92;2.13;;;;;;;9.32;85.97;98001.09;5094050;28;20501;-48
2023/12/05 01:23:11;;;;;;;6.55;3.38;;;;;;;9.22;85.67;98012.03;5095101;28;20055;-48
2023/12/05 01:25:37;;;;;;;7.85;2.35;;;;;;;9.36;86.72;98015.38;5093656;28;20111;-47
2023/12/05 01:28:03;;;;;;;3.80;2.00;;;;;;;9.39;86.62;98020.97;5093641;28;20028;-48
2023/12/05 01:30:29;;;;;;;4.00;2.38;;;;;;;9.56;86.64;98020.53;5094628;28;20414;-48
2023/12/05 01:32:54;;;;;;;5.45;2.47;;;;;;;9.58;87.11;98019.28;5093581;28;20016;-48
2023/12/05 01:35:20;;;;;;;5.47;1.90;;;;;;;9.62;85.75;98013.63;5094811;28;20473;-48
2023/12/05 01:37:48;;;;;;;5.00;4.38;;;;;;;9.45;86.40;98016.72;5094736;28;20102;-48
2023/12/05 01:40:14;;;;;;;5.78;1.95;;;;;;;9.39;86.04;98026.22;5094591;28;20103;-48
2023/12/05 01:42:40;;;;;;;6.55;2.33;;;;;;;9.28;86.46;98021.66;5094630;28;20107;-48
2023/12/05 01:45:07;;;;;;;4.90;1.95;;;;;;;9.34;87.74;98030.50;5094571;28;20028;-48
2023/12/05 01:47:39;;;;;;;11.23;7.18;;;;;;;9.42;87.54;98024.19;5076476;28;20118;-48
2023/12/05 01:50:10;;;;;;;3.50;1.98;;;;;;;9.40;87.37;98032.28;5094435;28;20031;-48
2023/12/05 01:52:39;;;;;;;3.15;1.92;;;;;;;9.38;86.03;98027.25;5094493;28;20471;-48
2023/12/05 01:55:08;;;;;;;5.60;1.48;;;;;;;9.45;86.01;98029.03;5094318;28;20414;-49
2023/12/05 01:57:35;;;;;;;3.70;2.80;;;;;;;9.53;87.37;98031.41;5093137;28;20060;-50
2023/12/05 02:00:01;;;;;;;4.10;2.30;;;;;;;9.53;86.82;98039.25;5092945;28;20027;-50
2023/12/05 02:02:27;;;;;;;4.95;3.13;;;;;;;9.48;85.96;98026.81;5092905;28;20031;-49
2023/12/05 02:04:53;;;;;;;7.53;6.57;;;;;;;9.50;85.98;98037.88;5075921;28;20023;-50
2023/12/05 02:07:18;;;;;;;239.65;213.52;;;;;;;9.45;88.53;98031.66;5094083;28;20213;-49
2023/12/05 02:09:44;;;;;;;135.20;121.25;;;;;;;9.30;88.99;98052.88;5094051;28;20020;-48
2023/12/05 02:12:10;;;;;;;176.77;158.05;;;;;;;9.07;90.75;98048.09;5092677;28;20032;-46
2023/12/05 02:14:36;;;;;;;104.60;94.03;;;;;;;8.90;92.69;98039.91;5093996;28;20023;-46
2023/12/05 02:17:02;;;;;;;97.93;87.80;;;;;;;8.86;95.42;98039.50;5093940;28;20035;-46
2023/12/05 02:19:42;;;;;;;27.33;24.08;;;;;;;8.74;95.51;98035.91;5093608;28;20026;-47
2023/12/05 02:22:47;;;;;;;245.48;219.65;;;;;;;8.78;97.85;98051.00;5093792;28;20028;-48
2023/12/05 02:25:31;;;;;;;28.60;23.05;;;;;;;8.75;98.25;98047.97;5075630;28;20452;-49
2023/12/05 02:28:00;;;;;;;9.93;8.07;;;;;;;8.71;98.53;98038.94;5093640;28;20436;-49
2023/12/05 02:30:26;;;;;;;12.80;8.35;;;;;;;8.66;99.52;98055.25;5092145;28;20070;-49
2023/12/05 02:32:52;;;;;;;8.55;3.63;;;;;;;8.69;100.00;98059.25;5092299;28;20060;-49
2023/12/05 02:35:18;;;;;;;21.40;19.08;;;;;;;8.74;100.00;98046.38;5092258;28;20024;-49
2023/12/05 02:38:06;;;;;;;7.65;5.70;;;;;;;8.70;100.00;98053.81;5092270;28;20020;-50
2023/12/05 02:40:50;;;;;;;4.45;2.47;;;;;;;8.80;100.00;98053.41;5092254;28;20509;-49
2023/12/05 02:43:28;;;;;;;5.93;4.63;;;;;;;8.85;100.00;98060.63;5093768;28;20419;-49
2023/12/05 02:45:55;;;;;;;9.65;8.05;;;;;;;8.88;100.00;98068.09;5091997;28;20036;-47
2023/12/05 02:48:22;;;;;;;10.40;7.43;;;;;;;8.90;100.00;98060.84;5075185;28;20020;-47
2023/12/05 02:50:47;;;;;;;9.65;7.18;;;;;;;8.72;100.00;98064.88;5075139;28;20024;-47
2023/12/05 02:53:13;;;;;;;33.08;29.75;;;;;;;8.63;100.00;98066.09;5093221;28;20027;-46
2023/12/05 02:55:40;;;;;;;36.83;33.35;;;;;;;8.71;100.00;98059.84;5091889;28;20084;-46
2023/12/05 02:58:05;;;;;;;8.70;7.00;;;;;;;8.88;100.00;98073.34;5093167;28;20036;-46
2023/12/05 03:00:31;;;;;;;10.27;5.93;;;;;;;8.92;100.00;98061.44;5093104;28;20378;-46
2023/12/05 03:02:56;;;;;;;4.03;3.00;;;;;;;8.78;100.00;98058.03;5091753;28;20619;-46
2023/12/05 03:05:22;;;;;;;4.85;2.40;;;;;;;8.60;100.00;98059.47;5093010;28;20118;-46
2023/12/05 03:07:48;;;;;;;4.07;2.88;;;;;;;8.53;100.00;98066.53;5092877;28;20016;-46
2023/12/05 03:10:13;;;;;;;6.28;3.58;;;;;;;8.56;100.00;98055.66;5091833;28;20028;-46
2023/12/05 03:12:39;;;;;;;8.65;5.10;;;;;;;8.79;100.00;98046.56;5092936;28;20024;-46
2023/12/05 03:15:05;;;;;;;5.20;3.22;;;;;;;8.73;100.00;98061.28;5092813;28;20073;-46
2023/12/05 03:17:31;;;;;;;24.77;22.48;;;;;;;8.63;100.00;98065.31;5091525;28;20031;-46
2023/12/05 03:19:57;;;;;;;4.18;3.78;;;;;;;8.62;100.00;98040.16;5091374;28;20020;-46
2023/12/05 03:22:22;;;;;;;4.47;3.28;;;;;;;8.62;100.00;98064.50;5092716;28;20498;-47
2023/12/05 03:24:50;;;;;;;8.13;4.18;;;;;;;8.71;100.00;98059.84;5092655;28;20034;-47
2023/12/05 03:27:16;;;;;;;4.10;3.25;;;;;;;8.73;100.00;98042.97;5091354;28;20016;-47
2023/12/05 03:29:42;;;;;;;5.47;3.85;;;;;;;8.67;100.00;98049.03;5090299;28;20039;-48
2023/12/05 03:32:07;;;;;;;8.02;7.22;;;;;;;8.65;100.00;98064.09;5091219;28;20032;-47
2023/12/05 03:34:33;;;;;;;6.43;4.15;;;;;;;8.70;100.00;98066.13;5091160;28;20389;-48
2023/12/05 03:36:58;;;;;;;6.03;5.40;;;;;;;8.80;100.00;98067.28;5091118;28;20112;-47
2023/12/05 03:39:24;;;;;;;9.20;5.30;;;;;;;8.74;100.00;98069.94;5092434;28;20401;-47
2023/12/05 03:41:50;;;;;;;6.43;5.75;;;;;;;8.73;100.00;98078.78;5092347;28;20543;-48
2023/12/05 03:44:15;;;;;;;7.75;4.28;;;;;;;8.82;100.00;98082.00;5091011;28;20024;-47
2023/12/05 03:46:41;;;;;;;4.15;3.40;;;;;;;8.89;100.00;98069.69;5092241;28;20034;-48
2023/12/05 03:49:07;;;;;;;7.75;4.78;;;;;;;8.82;100.00;98074.16;5092172;28;20077;-48
2023/12/05 03:51:32;;;;;;;4.63;2.75;;;;;;;8.77;100.00;98070.34;5090917;28;20047;-47
2023/12/05 03:53:58;;;;;;;4.80;2.47;;;;;;;8.86;100.00;98075.34;5092112;28;20028;-47
2023/12/05 03:56:24;;;;;;;7.38;4.25;;;;;;;8.95;100.00;98074.94;5090801;28;20028;-47
2023/12/05 03:58:51;;;;;;;70.88;64.40;;;;;;;8.99;100.00;98072.69;5092108;28;20032;-48
2023/12/05 04:01:17;;;;;;;12.23;8.70;;;;;;;8.98;100.00;98073.72;5092133;28;20024;-48
2023/12/05 04:03:42;;;;;;;9.18;5.30;;;;;;;9.07;100.00;98084.75;5090705;28;20095;-48
2023/12/05 04:06:08;;;;;;;2.85;2.38;;;;;;;9.20;100.00;98090.75;5092149;28;20034;-48
2023/12/05 04:08:34;;;;;;;5.13;3.25;;;;;;;9.25;100.00;98090.13;5090664;28;20022;-48
2023/12/05 04:11:00;;;;;;;4.13;1.90;;;;;;;9.26;100.00;98097.00;5091946;28;20114;-48
2023/12/05 04:13:25;;;;;;;12.95;7.30;;;;;;;9.16;100.00;98107.09;5090711;28;20814;-47
2023/12/05 04:15:51;;;;;;;6.15;4.22;;;;;;;9.34;100.00;98119.53;5090568;28;20438;-48
2023/12/05 04:18:16;;;;;;;4.03;2.70;;;;;;;9.41;100.00;98120.31;5091937;28;20020;-48
2023/12/05 04:20:43;;;;;;;5.68;2.00;;;;;;;9.64;100.00;98129.47;5091887;28;20397;-48
2023/12/05 04:23:09;;;;;;;4.65;2.47;;;;;;;9.58;100.00;98131.94;5091831;28;20063;-47
2023/12/05 04:25:34;;;;;;;5.65;1.70;;;;;;;9.32;100.00;98118.94;5091837;28;20055;-46
2023/12/05 04:28:00;;;;;;;6.93;2.83;;;;;;;8.94;100.00;98137.94;5090431;28;20020;-45
2023/12/05 04:30:26;;;;;;;3.72;1.40;;;;;;;8.52;98.58;98145.19;5090170;28;20044;-46
2023/12/05 04:32:51;;;;;;;5.35;2.05;;;;;;;8.16;100.00;98130.63;5091791;28;20103;-46
2023/12/05 04:35:17;;;;;;;2.38;1.10;;;;;;;7.97;100.00;98125.16;5091728;28;20020;-46
2023/12/05 04:37:43;;;;;;;4.38;1.40;;;;;;;7.74;100.00;98140.34;5090443;28;20036;-46
2023/12/05 04:40:09;;;;;;;3.92;1.25;;;;;;;7.58;99.17;98139.69;5090371;28;20031;-46
2023/12/05 04:42:35;;;;;;;7.57;1.65;;;;;;;7.52;97.52;98152.72;5093488;28;20021;-46
2023/12/05 04:45:00;;;;;;;5.93;2.80;;;;;;;7.65;98.42;98147.56;5095776;28;20093;-46
2023/12/05 04:47:26;;;;;;;9.05;1.23;;;;;;;8.03;100.00;98149.69;5095668;28;20097;-47
2023/12/05 04:49:51;;;;;;;4.72;1.38;;;;;;;8.64;100.00;98150.63;5095646;28;20024;-47
2023/12/05 04:52:17;;;;;;;4.38;1.35;;;;;;;8.99;100.00;98151.19;5095614;28;20095;-47
2023/12/05 04:54:43;;;;;;;9.25;3.08;;;;;;;9.12;100.00;98158.25;5095593;28;20020;-47
2023/12/05 04:57:09;;;;;;;4.28;1.08;;;;;;;9.11;100.00;98161.88;5095459;28;20024;-48
2023/12/05 04:59:34;;;;;;;17.60;9.00;;;;;;;9.06;99.75;98152.00;5095471;28;20498;-47
2023/12/05 05:02:00;;;;;;;30.90;26.13;;;;;;;9.05;96.69;98152.22;5095611;28;20091;-47
2023/12/05 05:04:25;;;;;;;4.47;2.33;;;;;;;8.99;95.17;98151.19;5094035;28;20469;-47
2023/12/05 05:06:51;;;;;;;3.75;1.20;;;;;;;8.85;94.52;98158.25;5095210;28;20023;-47
2023/12/05 05:09:17;;;;;;;5.40;1.65;;;;;;;8.69;93.71;98151.63;5095273;28;20448;-48
2023/12/05 05:11:42;;;;;;;4.20;1.58;;;;;;;8.65;92.71;98157.44;5095286;28;20481;-47
2023/12/05 05:14:08;;;;;;;5.72;0.77;;;;;;;8.58;91.90;98147.00;5095187;28;20035;-47
2023/12/05 05:16:34;;;;;;;6.00;1.08;;;;;;;8.58;93.56;98158.25;5095129;28;20393;-48
2023/12/05 05:19:00;;;;;;;3.35;1.20;;;;;;;8.67;93.44;98150.22;5095108;28;20028;-47
2023/12/05 05:21:26;;;;;;;7.45;1.50;;;;;;;8.75;94.61;98155.25;5095269;28;20028;-47
2023/12/05 05:23:52;;;;;;;6.95;1.00;;;;;;;8.75;94.89;98150.00;5094925;28;20034;-49
2023/12/05 05:26:18;;;;;;;3.05;0.90;;;;;;;8.73;94.32;98158.06;5094858;28;20020;-49
2023/12/05 05:28:43;;;;;;;5.88;1.42;;;;;;;8.72;93.59;98156.44;5094959;28;20032;-49
2023/12/05 05:31:09;;;;;;;10.63;2.38;;;;;;;8.69;93.07;98154.25;5088890;28;20048;-49
2023/12/05 05:33:35;;;;;;;5.93;1.50;;;;;;;8.60;92.01;98151.00;5093482;28;20123;-50
2023/12/05 05:36:01;;;;;;;2.95;1.30;;;;;;;8.57;89.80;98159.28;5093408;28;20447;-49
2023/12/05 05:38:26;;;;;;;4.65;1.73;;;;;;;8.63;89.62;98170.72;5094770;28;20186;-49
2023/12/05 05:41:03;;;;;;;5.47;1.30;;;;;;;8.65;88.17;98165.31;5094668;28;20020;-49
2023/12/05 05:43:29;;;;;;;8.48;1.65;;;;;;;8.67;89.71;98174.56;5093366;28;20036;-49
2023/12/05 05:45:54;;;;;;;3.60;1.08;;;;;;;8.69;89.27;98183.03;5094486;28;20027;-49
2023/12/05 05:48:20;;;;;;;9.38;2.85;;;;;;;8.73;90.94;98178.19;5094553;28;20020;-49
2023/12/05 05:50:46;;;;;;;3.75;1.27;;;;;;;8.73;92.05;98181.63;5076409;28;20508;-49
2023/12/05 05:53:11;;;;;;;5.45;1.10;;;;;;;8.82;93.48;98179.59;5093739;28;20028;-49
2023/12/05 05:55:37;;;;;;;5.90;0.93;;;;;;;8.79;92.93;98193.06;5094431;28;20020;-49
2023/12/05 05:58:03;;;;;;;5.13;1.52;;;;;;;8.70;92.25;98192.47;5094371;28;20055;-49
2023/12/05 06:00:28;;;;;;;6.70;1.67;;;;;;;8.77;93.96;98197.69;5093003;28;20024;-49
2023/12/05 06:02:54;;;;;;;4.25;1.15;;;;;;;8.66;92.35;98195.69;5094527;28;20028;-49
2023/12/05 06:05:20;;;;;;;5.82;1.13;;;;;;;8.50;91.35;98191.66;5092909;28;20055;-49
2023/12/05 06:07:45;;;;;;;7.55;1.35;;;;;;;8.34;91.36;98198.81;5092837;28;20028;-49
2023/12/05 06:10:11;;;;;;;5.25;1.67;;;;;;;8.32;91.64;98203.44;5094139;28;20020;-49
2023/12/05 06:12:37;;;;;;;4.63;1.65;;;;;;;8.35;92.21;98203.06;5094114;28;20114;-49
2023/12/05 06:15:03;;;;;;;73.25;65.47;;;;;;;8.29;91.89;98206.47;5092746;28;20040;-49
2023/12/05 06:17:28;;;;;;;13.90;5.68;;;;;;;8.22;91.21;98207.44;5092776;28;20401;-49
2023/12/05 06:19:54;;;;;;;6.35;1.73;;;;;;;8.17;91.37;98211.47;5092837;28;20027;-49
2023/12/05 06:22:20;;;;;;;9.98;1.65;;;;;;;8.18;91.98;98213.06;5093950;28;20070;-49
2023/12/05 06:24:45;;;;;;;9.63;2.40;;;;;;;8.25;92.32;98212.25;5092518;28;20401;-49
2023/12/05 06:27:11;;;;;;;6.57;1.25;;;;;;;8.40;92.81;98213.72;5094022;28;20111;-49
2023/12/05 06:29:37;;;;;;;8.05;1.73;;;;;;;8.34;91.70;98224.97;5093695;28;20539;-49
2023/12/05 06:32:03;;;;;;;6.93;3.03;;;;;;;8.17;90.40;98232.38;5093493;28;20047;-49
2023/12/05 06:34:28;;;;;;;5.40;1.48;;;;;;;7.94;90.10;98235.28;5093691;28;20080;-49
2023/12/05 06:36:54;;;;;;;7.57;5.05;;;;;;;7.74;89.61;98237.78;5093489;28;20103;-49
2023/12/05 06:39:20;;;;;;;4.50;3.20;;;;;;;7.57;90.03;98236.50;5093566;28;20066;-49
2023/12/05 06:41:46;;;;;;;7.35;5.32;;;;;;;7.45;90.93;98236.22;5093465;28;20028;-49
2023/12/05 06:44:12;;;;;;;5.93;3.47;;;;;;;7.30;90.44;98241.53;5092126;28;20031;-49
2023/12/05 06:46:37;;;;;;;7.88;2.53;;;;;;;7.10;86.61;98248.41;5093316;28;20382;-49
2023/12/05 06:49:03;;;;;;;10.88;4.93;;;;;;;6.85;85.20;98254.03;5093354;28;20028;-49
2023/12/05 06:51:29;;;;;;;8.88;4.50;;;;;;;6.58;83.30;98258.19;5092001;28;20520;-49
2023/12/05 06:53:55;;;;;;;8.85;3.90;;;;;;;6.35;82.04;98266.16;5093276;28;20478;-50
2023/12/05 06:56:21;;;;;;;9.38;5.72;;;;;;;6.09;82.35;98282.28;5092181;28;20063;-49
2023/12/05 06:58:46;;;;;;;21.15;15.27;;;;;;;5.86;83.05;98277.94;5093077;28;20062;-49
2023/12/05 07:01:12;;;;;;;26.52;20.00;;;;;;;5.60;84.81;98288.81;5093126;28;20052;-49
2023/12/05 07:03:38;;;;;;;25.25;19.10;;;;;;;5.39;85.98;98289.47;5092998;28;20478;-50
2023/12/05 07:06:05;;;;;;;37.33;31.17;;;;;;;5.22;88.33;98288.03;5091813;28;20020;-49
2023/12/05 07:08:31;;;;;;;42.38;37.45;;;;;;;5.18;91.13;98288.34;5092997;28;20432;-49
2023/12/05 07:10:56;;;;;;;25.33;21.00;;;;;;;5.31;93.39;98290.38;5093222;28;20032;-49
2023/12/05 07:13:22;;;;;;;18.88;16.90;;;;;;;5.51;94.43;98293.25;5092894;28;20020;-49
2023/12/05 07:15:48;;;;;;;15.43;10.75;;;;;;;5.62;94.04;98291.25;5092804;28;20068;-49
2023/12/05 07:18:14;;;;;;;9.93;3.38;;;;;;;5.71;94.84;98298.75;5092766;28;20032;-49
2023/12/05 07:20:39;;;;;;;3.85;2.10;;;;;;;5.88;94.41;98293.41;5092662;28;20035;-49
2023/12/05 07:23:05;;;;;;;7.50;2.03;;;;;;;6.04;93.77;98293.25;5092679;28;20020;-49
2023/12/05 07:25:31;;;;;;;8.18;2.97;;;;;;;6.19;93.10;98298.44;5091307;28;20054;-50
2023/12/05 07:27:56;;;;;;;8.93;3.75;;;;;;;6.34;93.01;98301.84;5091206;28;20024;-49
2023/12/05 07:30:22;;;;;;;15.43;9.02;;;;;;;6.43;92.38;98296.53;5092105;28;20115;-50
2023/12/05 07:32:48;;;;;;;13.15;5.55;;;;;;;6.54;91.38;98306.44;5092603;28;20114;-49
2023/12/05 07:35:14;;;;;;;9.43;5.13;;;;;;;6.69;90.29;98304.63;5091182;28;20047;-49
2023/12/05 07:37:39;;;;;;;9.85;2.40;;;;;;;6.77;88.25;98306.31;5092739;28;20028;-49
2023/12/05 07:40:06;;;;;;;8.70;3.53;;;;;;;6.86;88.92;98312.22;5092386;28;20028;-49
2023/12/05 07:42:32;;;;;;;6.57;2.05;;;;;;;6.86;88.22;98310.44;5092427;28;20012;-49
2023/12/05 07:44:57;;;;;;;10.73;4.38;;;;;;;6.88;87.83;98318.88;5091289;28;20086;-49
2023/12/05 07:47:26;;;;;;;8.88;4.10;;;;;;;6.86;88.10;98331.31;5092151;28;20028;-50
2023/12/05 07:49:52;;;;;;;13.27;6.10;;;;;;;6.78;84.18;98337.44;5090926;28;20042;-49
2023/12/05 07:52:18;;;;;;;9.43;6.00;;;;;;;6.90;84.05;98334.31;5092481;28;20016;-50
2023/12/05 07:54:44;;;;;;;8.70;5.28;;;;;;;6.90;81.87;98336.94;5092153;28;20107;-49
2023/12/05 07:57:10;;;;;;;9.52;2.92;;;;;;;6.85;83.76;98339.31;5092146;28;20103;-49
2023/12/05 07:59:35;;;;;;;9.10;2.67;;;;;;;6.56;82.34;98343.56;5090809;28;20055;-49
2023/12/05 08:02:01;;;;;;;9.85;2.13;;;;;;;6.34;84.46;98337.53;5090753;28;20021;-49
2023/12/05 08:04:27;;;;;;;9.60;2.47;;;;;;;6.41;86.19;98351.44;5092095;28;20063;-49
2023/12/05 08:06:53;;;;;;;9.43;2.38;;;;;;;6.62;85.36;98355.06;5090603;28;20028;-49
2023/12/05 08:09:18;;;;;;;6.07;2.45;;;;;;;6.70;85.15;98363.63;5092040;28;20024;-49
2023/12/05 08:11:44;;;;;;;5.70;1.67;;;;;;;7.19;79.92;98357.69;5091963;28;20016;-49
2023/12/05 08:14:10;;;;;;;12.00;2.75;;;;;;;7.56;78.11;98362.84;5091079;28;20528;-49
2023/12/05 08:16:37;;;;;;;7.45;2.60;;;;;;;8.28;81.60;98360.91;5091531;28;20058;-49
2023/12/05 08:19:02;;;;;;;10.73;2.85;;;;;;;9.58;82.92;98359.84;5091884;28;20031;-50
2023/12/05 08:21:28;;;;;;;11.85;3.05;;;;;;;11.17;80.81;98355.13;5090561;28;20389;-50
2023/12/05 08:23:54;;;;;;;11.93;3.60;;;;;;;12.55;78.74;98358.53;5091843;28;20024;-49
2023/12/05 08:26:20;;;;;;;10.30;3.33;;;;;;;13.09;75.47;98357.84;5091698;28;20394;-48
2023/12/05 08:28:45;;;;;;;11.32;2.88;;;;;;;13.27;75.48;98359.63;5091769;28;20030;-48
2023/12/05 08:31:11;;;;;;;7.80;2.10;;;;;;;14.14;71.14;98367.72;5090247;28;20036;-48
2023/12/05 08:33:37;;;;;;;7.32;2.42;;;;;;;14.62;67.99;98365.06;5090449;28;20455;-48
2023/12/05 08:36:02;;;;;;;7.80;2.60;;;;;;;14.16;67.28;98365.66;5090653;28;20035;-48
2023/12/05 08:38:28;;;;;;;4.15;2.03;;;;;;;13.23;67.85;98366.38;5090430;28;20020;-48
2023/12/05 08:40:54;;;;;;;6.68;2.83;;;;;;;12.51;70.05;98369.72;5090467;28;20024;-48
2023/12/05 08:43:20;;;;;;;6.35;2.15;;;;;;;11.87;69.82;98379.66;5091682;28;20024;-48
2023/12/05 08:45:45;;;;;;;6.88;1.85;;;;;;;11.18;66.07;98384.81;5091626;28;20020;-48
2023/12/05 08:48:11;;;;;;;4.57;1.83;;;;;;;10.56;67.30;98376.63;5091577;28;20020;-48
2023/12/05 08:50:37;;;;;;;6.97;2.28;;;;;;;10.23;68.00;98385.38;5091521;28;20024;-48
2023/12/05 08:53:03;;;;;;;5.03;2.50;;;;;;;9.99;65.07;98384.22;5091514;28;20016;-47
2023/12/05 08:55:29;;;;;;;5.57;2.08;;;;;;;9.75;64.67;98380.41;5091568;28;20070;-48
2023/12/05 08:57:55;;;;;;;6.03;2.20;;;;;;;9.67;68.88;98375.38;5090184;28;20028;-48
2023/12/05 09:00:21;;;;;;;8.73;4.78;;;;;;;9.95;71.43;98381.19;5090329;28;20024;-48
2023/12/05 09:02:47;;;;;;;14.15;4.60;;;;;;;10.27;69.71;98381.34;5090167;28;20389;-48
2023/12/05 09:05:12;;;;;;;8.13;2.95;;;;;;;10.38;69.41;98382.53;5091632;28;20082;-49
2023/12/05 09:07:39;;;;;;;11.23;2.95;;;;;;;10.41;71.34;98382.16;5091371;28;20055;-50
2023/12/05 09:10:05;;;;;;;9.10;2.90;;;;;;;10.52;70.25;98388.56;5091651;28;20103;-50
2023/12/05 09:12:32;;;;;;;10.02;3.05;;;;;;;10.50;69.96;98385.34;5090094;28;20116;-50
2023/12/05 09:14:58;;;;;;;7.85;3.15;;;;;;;10.70;72.02;98387.88;5091341;28;20028;-50
2023/12/05 09:17:24;;;;;;;8.07;3.20;;;;;;;11.25;72.19;98384.78;5091350;28;20028;-50
2023/12/05 09:19:53;;;;;;;12.57;3.42;;;;;;;11.77;72.13;98374.88;5089932;28;20061;-50
2023/12/05 09:22:18;;;;;;;8.98;2.78;;;;;;;11.91;70.77;98378.25;5089948;28;20559;-50
2023/12/05 09:24:44;;;;;;;7.20;2.88;;;;;;;12.12;70.13;98382.31;5091556;28;20028;-50
2023/12/05 09:27:09;;;;;;;5.72;2.50;;;;;;;12.11;68.71;98376.25;5091174;28;20367;-48
2023/12/05 09:29:35;;;;;;;8.50;2.00;;;;;;;11.94;66.33;98383.06;5094025;28;20020;-48
2023/12/05 09:32:01;;;;;;;8.43;1.98;;;;;;;11.65;67.35;98382.69;5093351;28;20056;-48
2023/12/05 09:34:27;;;;;;;5.45;1.30;;;;;;;11.47;66.64;98391.31;5094872;28;20016;-48
2023/12/05 09:36:52;;;;;;;9.52;1.83;;;;;;;11.31;67.13;98387.38;5093427;28;20131;-48
2023/12/05 09:39:18;;;;;;;6.65;2.03;;;;;;;11.43;67.96;98390.13;5093449;28;20051;-48
2023/12/05 09:41:54;;;;;;;5.13;2.35;;;;;;;12.37;68.38;98388.31;5094622;28;20062;-48
2023/12/05 09:44:21;;;;;;;5.60;1.90;;;;;;;13.02;64.41;98380.84;5094727;28;20074;-48
2023/12/05 09:46:52;;;;;;;6.80;1.73;;;;;;;13.57;63.25;98389.41;5093212;28;20025;-48
2023/12/05 09:49:18;;;;;;;6.32;1.63;;;;;;;13.28;62.20;98385.75;5094641;28;20062;-48
2023/12/05 09:51:46;;;;;;;5.28;1.70;;;;;;;12.78;63.17;98393.94;5093337;28;20027;-48
2023/12/05 09:54:14;;;;;;;7.97;1.95;;;;;;;12.52;63.29;98387.94;5094494;28;20103;-48
2023/12/05 09:56:39;;;;;;;4.75;1.50;;;;;;;12.32;63.44;98392.63;5094383;28;20024;-48
2023/12/05 09:59:05;;;;;;;7.72;1.70;;;;;;;12.27;64.41;98400.34;5093091;28;20089;-48
2023/12/05 10:01:35;;;;;;;4.55;1.70;;;;;;;12.32;62.36;98405.78;5094344;28;20028;-48
2023/12/05 10:04:01;;;;;;;11.45;1.92;;;;;;;12.39;62.83;98396.81;5094312;28;20394;-48
2023/12/05 10:06:29;;;;;;;7.32;1.42;;;;;;;13.18;61.59;98399.47;5092786;28;20024;-48
2023/12/05 10:08:56;;;;;;;5.38;1.50;;;;;;;13.91;59.81;98392.31;5094193;28;20389;-48
2023/12/05 10:11:27;;;;;;;6.03;1.75;;;;;;;14.05;58.24;98392.88;5094115;28;20029;-47
2023/12/05 10:13:53;;;;;;;9.88;1.65;;;;;;;13.98;58.30;98394.81;5092814;28;20130;-48
2023/12/05 10:16:22;;;;;;;4.85;1.38;;;;;;;14.03;57.97;98386.22;5093060;28;20042;-48
2023/12/05 10:18:48;;;;;;;3.97;1.70;;;;;;;13.94;57.71;98385.75;5094277;28;20020;-48
2023/12/05 10:21:14;;;;;;;9.68;1.40;;;;;;;13.69;56.70;98391.25;5092756;28;20016;-48
2023/12/05 10:23:40;;;;;;;6.28;1.17;;;;;;;13.70;58.07;98385.75;5092590;28;20441;-48
2023/12/05 10:26:05;;;;;;;7.75;1.70;;;;;;;13.58;57.76;98384.91;5093807;28;20070;-48
2023/12/05 10:28:31;;;;;;;4.85;1.55;;;;;;;13.98;57.22;98385.09;5093825;28;20070;-48
2023/12/05 10:30:57;;;;;;;3.63;1.40;;;;;;;14.51;52.69;98382.50;5093519;28;20433;-48
2023/12/05 10:33:23;;;;;;;7.53;1.90;;;;;;;14.50;52.62;98380.88;5093716;28;20016;-48
2023/12/05 10:35:49;;;;;;;5.85;2.42;;;;;;;14.39;53.38;98379.88;5093598;28;20536;-48
2023/12/05 10:38:17;;;;;;;10.77;6.55;;;;;;;14.29;52.77;98382.31;5092298;28;20040;-48
2023/12/05 10:40:56;;;;;;;15.02;7.97;;;;;;;13.83;52.92;98378.66;5093304;28;20098;-48
2023/12/05 10:43:26;;;;;;;7.65;4.70;;;;;;;13.38;50.38;98378.13;5092266;28;20241;-48
2023/12/05 10:45:54;;;;;;;5.68;3.78;;;;;;;13.11;49.69;98371.59;5093440;28;20035;-48
2023/12/05 10:48:20;;;;;;;6.55;2.42;;;;;;;12.66;48.00;98377.28;5093427;28;20016;-48
2023/12/05 10:50:52;;;;;;;11.77;6.97;;;;;;;12.22;50.12;98371.28;5093311;28;20425;-48
2023/12/05 10:53:19;;;;;;;8.25;2.85;;;;;;;12.54;52.23;98367.47;5092035;28;20024;-47
2023/12/05 10:55:45;;;;;;;6.47;2.42;;;;;;;13.12;52.13;98370.56;5093226;28;20028;-47
2023/12/05 10:58:11;;;;;;;7.00;1.77;;;;;;;12.97;47.70;98365.72;5075198;28;20020;-47
2023/12/05 11:00:38;;;;;;;6.75;1.90;;;;;;;12.67;48.41;98366.50;5093202;28;20028;-48
2023/12/05 11:03:04;;;;;;;6.35;1.48;;;;;;;12.82;48.13;98366.13;5091809;28;20448;-48
2023/12/05 11:05:33;;;;;;;12.48;2.45;;;;;;;12.93;48.47;98361.91;5093074;28;20035;-48
2023/12/05 11:08:00;;;;;;;3.70;1.30;;;;;;;12.63;46.32;98365.34;5093046;28;20061;-48
2023/12/05 11:10:27;;;;;;;7.47;1.20;;;;;;;12.33;44.86;98357.38;5093036;28;20024;-48
2023/12/05 11:12:55;;;;;;;5.55;1.23;;;;;;;11.78;44.63;98361.53;5074977;28;20063;-48
2023/12/05 11:15:41;;;;;;;8.73;1.67;;;;;;;11.69;46.44;98354.97;5091616;28;20086;-48
2023/12/05 11:18:34;;;;;;;3.70;1.38;;;;;;;12.16;47.97;98351.91;5074960;28;20097;-48
2023/12/05 11:21:15;;;;;;;7.22;1.85;;;;;;;12.45;47.99;98355.63;5092873;28;20024;-48
2023/12/05 11:24:07;;;;;;;4.50;1.20;;;;;;;12.77;46.54;98350.16;5091482;28;20035;-48
2023/12/05 11:26:38;;;;;;;5.35;1.70;;;;;;;13.53;46.67;98346.06;5092890;28;20036;-48
2023/12/05 11:29:32;;;;;;;4.25;1.17;;;;;;;14.25;45.71;98346.88;5092715;28;20027;-48
2023/12/05 11:32:25;;;;;;;5.55;1.05;;;;;;;13.90;43.18;98342.41;5092399;28;20089;-48